createdAt,value
2022-08-25T00:00:15.976Z,101770.94
2022-08-25T00:02:45.554Z,101772.47
2022-08-25T00:05:22.506Z,101764.59
2022-08-25T00:07:49.066Z,101765.69
2022-08-25T00:10:15.557Z,101761.44
2022-08-25T00:12:42.902Z,101763.41
2022-08-25T00:15:09.848Z,101760.84
2022-08-25T00:17:36.349Z,101770.84
2022-08-25T00:20:05.131Z,101757.34
2022-08-25T00:22:31.813Z,101757.34
2022-08-25T00:24:58.347Z,101757.84
2022-08-25T00:27:25.924Z,101754.44
2022-08-25T00:29:52.468Z,101755.28
2022-08-25T00:32:19.144Z,101758.94
2022-08-25T00:34:46.093Z,101760.00
2022-08-25T00:37:12.749Z,101755.28
2022-08-25T00:39:39.886Z,101751.06
2022-08-25T00:42:11.847Z,101752.38
2022-08-25T00:44:44.116Z,101748.97
2022-08-25T00:47:10.945Z,101751.50
2022-08-25T00:49:42.452Z,101746.44
2022-08-25T00:52:12.128Z,101747.59
2022-08-25T00:54:54.715Z,101739.50
2022-08-25T00:57:34.131Z,101745.75
2022-08-25T01:00:05.061Z,101741.50
2022-08-25T01:02:31.680Z,101744.75
2022-08-25T01:04:58.830Z,101742.41
2022-08-25T01:07:25.398Z,101742.03
2022-08-25T01:09:52.754Z,101732.25
2022-08-25T01:12:19.576Z,101739.13
2022-08-25T01:14:47.528Z,101742.34
2022-08-25T01:17:14.411Z,101730.00
2022-08-25T01:19:41.064Z,101724.91
2022-08-25T01:22:08.179Z,101729.88
2022-08-25T01:24:47.840Z,101722.25
2022-08-25T01:27:14.423Z,101729.03
2022-08-25T01:29:41.078Z,101720.34
2022-08-25T01:32:09.839Z,101726.13
2022-08-25T01:34:38.826Z,101726.56
2022-08-25T01:37:06.179Z,101725.94
2022-08-25T01:39:34.038Z,101716.19
2022-08-25T01:42:12.092Z,101725.56
2022-08-25T01:44:41.983Z,101720.03
2022-08-25T01:47:08.594Z,101716.63
2022-08-25T01:49:35.169Z,101713.22
2022-08-25T01:52:33.655Z,101708.56
2022-08-25T01:55:00.282Z,101712.41
2022-08-25T01:57:30.059Z,101719.84
2022-08-25T01:59:56.601Z,101710.91
2022-08-25T02:02:23.421Z,101710.53
2022-08-25T02:04:52.882Z,101712.66
2022-08-25T02:07:20.063Z,101706.53
2022-08-25T02:09:47.335Z,101711.22
2022-08-25T02:12:13.999Z,101708.19
2022-08-25T02:14:40.783Z,101707.38
2022-08-25T02:17:08.325Z,101700.13
2022-08-25T02:19:34.981Z,101706.75
2022-08-25T02:22:02.757Z,101700.56
2022-08-25T02:24:31.461Z,101695.50
2022-08-25T02:26:58.344Z,101700.63
2022-08-25T02:29:25.355Z,101691.72
2022-08-25T02:31:51.966Z,101689.59
2022-08-25T02:34:18.922Z,101683.22
2022-08-25T02:36:45.637Z,101673.22
2022-08-25T02:39:12.375Z,101676.38
2022-08-25T02:41:39.131Z,101671.31
2022-08-25T02:46:32.728Z,101654.28
2022-08-25T02:48:59.569Z,101660.06
2022-08-25T02:51:30.002Z,101657.53
2022-08-25T02:53:57.924Z,101654.97
2022-08-25T02:56:25.796Z,101647.50
2022-08-25T02:58:52.664Z,101647.50
2022-08-25T03:01:19.522Z,101654.34
2022-08-25T03:03:46.976Z,101649.66
2022-08-25T03:06:15.845Z,101652.03
2022-08-25T03:08:43.125Z,101647.56
2022-08-25T03:11:10.427Z,101654.81
2022-08-25T03:13:37.344Z,101650.78
2022-08-25T03:16:09.814Z,101637.19
2022-08-25T03:18:39.837Z,101632.28
2022-08-25T03:21:07.447Z,101635.06
2022-08-25T03:23:34.137Z,101632.53
2022-08-25T03:26:20.912Z,101628.06
2022-08-25T03:28:47.532Z,101633.22
2022-08-25T03:31:14.047Z,101625.97
2022-08-25T03:33:40.646Z,101620.03
2022-08-25T03:36:08.607Z,101613.03
2022-08-25T03:38:37.296Z,101606.00
2022-08-25T03:41:13.837Z,101608.13
2022-08-25T03:43:40.915Z,101604.13
2022-08-25T03:46:07.639Z,101597.34
2022-08-25T03:48:34.499Z,101603.31
2022-08-25T03:51:01.035Z,101604.88
2022-08-25T03:53:27.524Z,101605.31
2022-08-25T03:55:54.208Z,101603.84
2022-08-25T03:58:20.713Z,101601.53
2022-08-25T04:00:47.270Z,101603.03
2022-08-25T04:03:13.838Z,101593.50
2022-08-25T04:05:41.039Z,101589.03
2022-08-25T04:08:08.106Z,101580.75
2022-08-25T04:10:35.151Z,101586.28
2022-08-25T04:13:01.851Z,101577.34
2022-08-25T04:15:30.243Z,101571.81
2022-08-25T04:17:58.886Z,101572.44
2022-08-25T04:20:25.647Z,101574.34
2022-08-25T04:22:52.210Z,101570.75
2022-08-25T04:25:18.715Z,101560.50
2022-08-25T04:27:45.203Z,101567.09
2022-08-25T04:30:12.400Z,101573.50
2022-08-25T04:32:39.036Z,101559.44
2022-08-25T04:35:05.989Z,101561.75
2022-08-25T04:37:33.434Z,101561.13
2022-08-25T04:40:00.157Z,101557.28
2022-08-25T04:42:27.026Z,101558.53
2022-08-25T04:44:54.410Z,101558.50
2022-08-25T04:47:20.925Z,101543.72
2022-08-25T04:49:47.832Z,101550.28
2022-08-25T04:52:14.833Z,101539.38
2022-08-25T04:54:42.192Z,101547.63
2022-08-25T04:57:08.730Z,101533.13
2022-08-25T04:59:35.285Z,101537.34
2022-08-25T05:02:03.227Z,101532.69
2022-08-25T05:04:31.093Z,101533.28
2022-08-25T05:06:58.011Z,101537.28
2022-08-25T05:09:25.491Z,101526.38
2022-08-25T05:11:52.879Z,101531.00
2022-08-25T05:14:22.643Z,101530.09
2022-08-25T05:16:53.038Z,101533.16
2022-08-25T05:19:19.652Z,101526.69
2022-08-25T05:21:46.345Z,101527.53
2022-08-25T05:24:12.922Z,101531.22
2022-08-25T05:26:39.755Z,101529.28
2022-08-25T05:29:06.888Z,101531.16
2022-08-25T05:31:36.339Z,101532.75
2022-08-25T05:34:06.805Z,101536.75
2022-08-25T05:36:34.170Z,101535.59
2022-08-25T05:39:01.141Z,101534.69
2022-08-25T05:41:29.498Z,101538.53
2022-08-25T05:43:56.706Z,101538.91
2022-08-25T05:46:23.771Z,101535.66
2022-08-25T05:48:50.569Z,101537.47
2022-08-25T05:51:17.762Z,101533.19
2022-08-25T05:53:46.769Z,101533.50
2022-08-25T05:56:16.644Z,101531.66
2022-08-25T05:58:43.573Z,101531.91
2022-08-25T06:01:29.638Z,101533.75
2022-08-25T06:03:56.289Z,101529.41
2022-08-25T06:06:24.329Z,101528.88
2022-08-25T06:08:51.631Z,101528.66
2022-08-25T06:11:18.487Z,101525.16
2022-08-25T06:13:45.594Z,101521.72
2022-08-25T06:16:12.328Z,101514.94
2022-08-25T06:18:38.989Z,101513.38
2022-08-25T06:21:14.151Z,101504.47
2022-08-25T06:23:41.001Z,101505.09
2022-08-25T06:26:10.885Z,101511.50
2022-08-25T06:28:41.039Z,101517.31
2022-08-25T06:31:07.580Z,101505.41
2022-08-25T06:33:34.298Z,101507.34
2022-08-25T06:36:01.175Z,101511.13
2022-08-25T06:38:27.835Z,101515.13
2022-08-25T06:40:54.443Z,101511.97
2022-08-25T06:43:21.502Z,101507.97
2022-08-25T06:45:48.649Z,101514.03
2022-08-25T06:48:15.554Z,101508.84
2022-08-25T06:50:42.853Z,101502.44
2022-08-25T06:53:09.472Z,101505.56
2022-08-25T06:55:36.866Z,101507.38
2022-08-25T06:58:04.861Z,101501.19
2022-08-25T07:00:32.586Z,101499.72
2022-08-25T07:03:01.181Z,101499.81
2022-08-25T07:05:42.593Z,101505.59
2022-08-25T07:08:11.789Z,101498.91
2022-08-25T07:10:38.818Z,101491.69
2022-08-25T07:13:05.358Z,101494.16
2022-08-25T07:15:31.921Z,101484.91
2022-08-25T07:17:58.457Z,101490.84
2022-08-25T07:22:57.886Z,101488.06
2022-08-25T07:25:24.546Z,101487.56
2022-08-25T07:27:52.367Z,101482.50
2022-08-25T07:30:20.537Z,101485.63
2022-08-25T07:32:47.088Z,101482.31
2022-08-25T07:35:24.226Z,101487.78
2022-08-25T07:37:58.219Z,101484.34
2022-08-25T07:40:34.020Z,101489.13
2022-08-25T07:43:05.358Z,101482.38
2022-08-25T07:45:35.351Z,101489.25
2022-08-25T07:48:05.594Z,101497.69
2022-08-25T07:50:32.865Z,101489.84
2022-08-25T07:52:59.812Z,101494.63
2022-08-25T07:55:28.156Z,101497.94
2022-08-25T07:58:12.303Z,101498.97
2022-08-25T08:00:39.514Z,101489.34
2022-08-25T08:03:12.931Z,101490.25
2022-08-25T08:05:50.719Z,101494.47
2022-08-25T08:08:17.256Z,101491.19
2022-08-25T08:11:04.036Z,101493.59
2022-08-25T08:13:34.835Z,101495.13
2022-08-25T08:16:09.531Z,101496.84
2022-08-25T08:18:36.186Z,101495.25
2022-08-25T08:21:02.699Z,101510.13
2022-08-25T08:23:30.576Z,101510.13
2022-08-25T08:25:57.193Z,101500.53
2022-08-25T08:28:27.792Z,101508.06
2022-08-25T08:30:54.391Z,101518.94
2022-08-25T08:33:23.513Z,101513.34
2022-08-25T08:36:06.230Z,101498.50
2022-08-25T08:38:34.629Z,101504.09
2022-08-25T08:42:09.676Z,101503.25
2022-08-25T08:44:46.633Z,101500.44
2022-08-25T08:47:20.460Z,101501.53
2022-08-25T08:50:23.912Z,101502.41
2022-08-25T08:52:56.111Z,101505.78
2022-08-25T08:55:31.342Z,101508.34
2022-08-25T08:58:00.226Z,101498.97
2022-08-25T09:00:28.583Z,101500.38
2022-08-25T09:03:12.445Z,101507.94
2022-08-25T09:05:48.461Z,101498.91
2022-08-25T09:08:20.272Z,101500.59
2022-08-25T09:11:10.466Z,101498.44
2022-08-25T09:13:55.328Z,101493.72
2022-08-25T09:16:51.028Z,101495.72
2022-08-25T09:19:53.192Z,101491.00
2022-08-25T09:22:35.701Z,101486.88
2022-08-25T09:25:34.598Z,101484.16
2022-08-25T09:28:24.052Z,101487.34
2022-08-25T09:30:56.669Z,101491.50
2022-08-25T09:33:25.257Z,101488.03
2022-08-25T09:35:53.609Z,101494.22
2022-08-25T09:38:20.764Z,101489.22
2022-08-25T09:40:56.085Z,101481.19
2022-08-25T09:43:40.204Z,101487.22
2022-08-25T09:46:12.950Z,101473.19
2022-08-25T09:48:56.928Z,101484.06
2022-08-25T09:51:28.637Z,101479.81
2022-08-25T09:54:13.518Z,101480.66
2022-08-25T09:56:52.653Z,101471.53
2022-08-25T09:59:30.807Z,101473.13
2022-08-25T10:02:26.002Z,101474.00
2022-08-25T10:04:54.095Z,101473.88
2022-08-25T10:07:38.449Z,101466.59
2022-08-25T10:10:27.563Z,101460.22
2022-08-25T10:13:01.172Z,101469.38
2022-08-25T10:15:34.635Z,101460.94
2022-08-25T10:18:25.630Z,101458.94
2022-08-25T10:21:14.721Z,101455.00
2022-08-25T10:23:55.865Z,101458.19
2022-08-25T10:26:34.896Z,101450.34
2022-08-25T10:29:22.279Z,101447.19
2022-08-25T10:31:58.377Z,101443.19
2022-08-25T10:34:46.241Z,101439.38
2022-08-25T10:37:40.098Z,101440.41
2022-08-25T10:40:25.588Z,101433.78
2022-08-25T10:43:08.447Z,101430.81
2022-08-25T10:45:49.607Z,101426.38
2022-08-25T10:48:23.375Z,101419.22
2022-08-25T10:50:58.455Z,101420.25
2022-08-25T10:53:47.666Z,101418.16
2022-08-25T10:56:37.073Z,101428.09
2022-08-25T10:59:25.670Z,101420.56
2022-08-25T11:02:08.261Z,101417.25
2022-08-25T11:05:11.484Z,101424.38
2022-08-25T11:07:41.928Z,101423.84
2022-08-25T11:10:19.021Z,101429.47
2022-08-25T11:12:50.790Z,101429.78
2022-08-25T11:15:28.457Z,101434.13
2022-08-25T11:18:02.685Z,101419.69
2022-08-25T11:20:38.123Z,101424.34
2022-08-25T11:23:15.347Z,101420.03
2022-08-25T11:25:44.661Z,101412.09
2022-08-25T11:28:33.586Z,101410.59
2022-08-25T11:31:02.957Z,101411.66
2022-08-25T11:33:32.043Z,101416.75
2022-08-25T11:36:31.989Z,101415.47
2022-08-25T11:39:04.428Z,101411.97
2022-08-25T11:42:02.433Z,101415.84
2022-08-25T11:44:58.109Z,101415.53
2022-08-25T11:47:39.871Z,101408.66
2022-08-25T11:50:30.226Z,101410.25
2022-08-25T11:53:26.737Z,101400.97
2022-08-25T11:55:58.813Z,101406.16
2022-08-25T11:58:28.486Z,101401.09
2022-08-25T12:00:59.670Z,101404.47
2022-08-25T12:03:32.257Z,101392.72
2022-08-25T12:06:23.406Z,101393.69
2022-08-25T12:09:13.250Z,101402.28
2022-08-25T12:12:05.608Z,101396.34
2022-08-25T12:14:32.051Z,101384.72
2022-08-25T12:17:06.333Z,101381.28
2022-08-25T12:19:36.646Z,101385.06
2022-08-25T12:22:04.632Z,101379.13
2022-08-25T12:24:47.743Z,101378.31
2022-08-25T12:27:40.075Z,101375.09
2022-08-25T12:30:27.585Z,101381.38
2022-08-25T12:33:03.237Z,101382.09
2022-08-25T12:35:32.660Z,101386.69
2022-08-25T12:38:06.094Z,101387.81
2022-08-25T12:40:39.908Z,101383.72
2022-08-25T12:43:14.157Z,101382.94
2022-08-25T12:45:48.333Z,101386.44
2022-08-25T12:48:27.219Z,101390.59
2022-08-25T12:50:59.392Z,101383.66
2022-08-25T12:53:25.819Z,101390.94
2022-08-25T12:56:00.484Z,101380.38
2022-08-25T12:58:58.841Z,101379.91
2022-08-25T13:01:47.572Z,101375.53
2022-08-25T13:04:50.124Z,101384.72
2022-08-25T13:07:46.526Z,101380.53
2022-08-25T13:10:54.479Z,101377.84
2022-08-25T13:13:39.507Z,101378.47
2022-08-25T13:16:09.486Z,101376.31
2022-08-25T13:18:38.281Z,101369.75
2022-08-25T13:21:15.333Z,101368.75
2022-08-25T13:23:44.835Z,101368.47
2022-08-25T13:26:22.601Z,101361.66
2022-08-25T13:28:57.926Z,101365.19
2022-08-25T13:31:29.084Z,101359.09
2022-08-25T13:33:58.658Z,101360.69
2022-08-25T13:36:51.090Z,101358.34
2022-08-25T13:39:45.561Z,101353.38
2022-08-25T13:42:14.960Z,101348.25
2022-08-25T13:44:41.824Z,101363.03
2022-08-25T13:47:43.866Z,101358.41
2022-08-25T13:50:20.495Z,101348.75
2022-08-25T13:53:02.094Z,101349.88
2022-08-25T13:55:50.488Z,101344.38
2022-08-25T13:58:24.214Z,101350.38
2022-08-25T14:01:02.762Z,101342.66
2022-08-25T14:03:49.968Z,101343.44
2022-08-25T14:06:16.424Z,101337.91
2022-08-25T14:08:45.563Z,101333.63
2022-08-25T14:11:30.708Z,101330.22
2022-08-25T14:14:01.515Z,101331.59
2022-08-25T14:16:33.146Z,101330.59
2022-08-25T14:19:01.908Z,101335.25
2022-08-25T14:21:30.760Z,101335.59
2022-08-25T14:23:57.906Z,101342.09
2022-08-25T14:26:26.988Z,101341.75
2022-08-25T14:28:53.762Z,101336.41
2022-08-25T14:31:20.279Z,101341.13
2022-08-25T14:33:56.050Z,101336.53
2022-08-25T14:36:22.753Z,101339.28
2022-08-25T14:38:54.794Z,101341.81
2022-08-25T14:41:23.872Z,101358.03
2022-08-25T14:43:50.618Z,101349.28
2022-08-25T14:46:20.339Z,101354.38
2022-08-25T14:48:52.120Z,101361.56
2022-08-25T14:51:18.758Z,101373.66
2022-08-25T14:53:47.516Z,101371.38
2022-08-25T14:56:14.369Z,101372.22
2022-08-25T14:58:50.985Z,101369.34
2022-08-25T15:01:28.883Z,101371.34
2022-08-25T15:04:08.880Z,101364.75
2022-08-25T15:06:36.703Z,101378.78
2022-08-25T15:09:08.537Z,101377.16
2022-08-25T15:11:36.648Z,101387.84
2022-08-25T15:14:10.795Z,101380.97
2022-08-25T15:16:40.302Z,101381.53
2022-08-25T15:19:11.538Z,101386.03
2022-08-25T15:21:38.594Z,101380.75
2022-08-25T15:24:07.064Z,101374.72
2022-08-25T15:26:39.961Z,101377.13
2022-08-25T15:29:06.929Z,101376.91
2022-08-25T15:31:35.490Z,101383.13
2022-08-25T15:34:02.243Z,101377.25
2022-08-25T15:36:29.035Z,101381.75
2022-08-25T15:38:55.557Z,101375.28
2022-08-25T15:41:23.150Z,101378.38
2022-08-25T15:43:54.583Z,101378.03
2022-08-25T15:46:24.472Z,101384.47
2022-08-25T15:48:51.142Z,101383.28
2022-08-25T15:51:18.928Z,101368.22
2022-08-25T15:53:46.066Z,101378.28
2022-08-25T15:56:26.772Z,101373.28
2022-08-25T15:58:55.459Z,101381.66
2022-08-25T16:01:26.337Z,101381.16
2022-08-25T16:03:53.435Z,101381.63
2022-08-25T16:06:20.353Z,101376.84
2022-08-25T16:08:48.244Z,101380.63
2022-08-25T16:11:19.370Z,101375.44
2022-08-25T16:13:47.654Z,101380.47
2022-08-25T16:16:16.171Z,101384.09
2022-08-25T16:18:43.868Z,101372.44
2022-08-25T16:21:12.401Z,101376.13
2022-08-25T16:23:40.238Z,101372.19
2022-08-25T16:26:09.458Z,101377.25
2022-08-25T16:28:37.678Z,101370.53
2022-08-25T16:31:05.079Z,101375.81
2022-08-25T16:33:32.227Z,101365.22
2022-08-25T16:36:10.963Z,101371.94
2022-08-25T16:38:38.591Z,101373.22
2022-08-25T16:41:09.890Z,101373.25
2022-08-25T16:43:37.179Z,101378.34
2022-08-25T16:46:07.233Z,101374.19
2022-08-25T16:48:34.548Z,101375.44
2022-08-25T16:51:12.260Z,101390.47
2022-08-25T16:53:57.904Z,101394.00
2022-08-25T16:56:27.987Z,101383.59
2022-08-25T16:58:56.007Z,101376.91
2022-08-25T17:01:25.193Z,101388.38
2022-08-25T17:03:53.222Z,101385.41
2022-08-25T17:06:20.542Z,101381.38
2022-08-25T17:08:50.748Z,101393.22
2022-08-25T17:11:19.292Z,101378.75
2022-08-25T17:13:49.732Z,101387.75
2022-08-25T17:16:17.187Z,101396.50
2022-08-25T17:18:47.629Z,101393.50
2022-08-25T17:21:24.098Z,101395.78
2022-08-25T17:23:51.501Z,101392.16
2022-08-25T17:26:18.286Z,101401.16
2022-08-25T17:28:45.956Z,101396.44
2022-08-25T17:31:14.495Z,101407.44
2022-08-25T17:33:41.218Z,101409.31
2022-08-25T17:36:08.510Z,101407.84
2022-08-25T17:38:36.123Z,101408.16
2022-08-25T17:41:06.863Z,101426.63
2022-08-25T17:43:37.504Z,101429.59
2022-08-25T17:46:04.759Z,101437.81
2022-08-25T17:48:33.074Z,101438.50
2022-08-25T17:51:00.309Z,101448.09
2022-08-25T17:53:27.814Z,101461.31
2022-08-25T17:56:00.450Z,101459.13
2022-08-25T17:58:28.241Z,101465.22
2022-08-25T18:00:55.300Z,101473.06
2022-08-25T18:03:21.964Z,101476.69
2022-08-25T18:05:49.838Z,101467.88
2022-08-25T18:08:18.038Z,101470.53
2022-08-25T18:10:47.049Z,101473.06
2022-08-25T18:13:14.115Z,101476.94
2022-08-25T18:15:42.507Z,101465.94
2022-08-25T18:18:09.792Z,101472.38
2022-08-25T18:20:39.302Z,101477.22
2022-08-25T18:23:09.797Z,101485.91
2022-08-25T18:25:36.934Z,101485.41
2022-08-25T18:28:09.068Z,101479.63
2022-08-25T18:30:36.342Z,101486.88
2022-08-25T18:33:02.904Z,101486.47
2022-08-25T18:35:29.549Z,101494.94
2022-08-25T18:38:14.468Z,101495.31
2022-08-25T18:40:42.079Z,101503.75
2022-08-25T18:43:14.453Z,101499.25
2022-08-25T18:45:44.558Z,101502.19
2022-08-25T18:48:11.446Z,101513.00
2022-08-25T18:50:40.423Z,101510.94
2022-08-25T18:53:08.533Z,101524.81
2022-08-25T18:55:36.176Z,101527.50
2022-08-25T18:58:03.601Z,101530.00
2022-08-25T19:00:31.017Z,101533.88
2022-08-25T19:02:59.908Z,101534.13
2022-08-25T19:05:32.648Z,101542.75
2022-08-25T19:08:06.756Z,101548.75
2022-08-25T19:10:34.574Z,101552.31
2022-08-25T19:13:07.871Z,101559.63
2022-08-25T19:15:36.402Z,101560.84
2022-08-25T19:18:06.848Z,101564.19
2022-08-25T19:20:36.867Z,101573.63
2022-08-25T19:23:03.479Z,101574.34
2022-08-25T19:25:34.812Z,101571.41
2022-08-25T19:28:05.602Z,101576.34
2022-08-25T19:30:34.271Z,101583.50
2022-08-25T19:33:01.151Z,101569.78
2022-08-25T19:35:44.071Z,101581.97
2022-08-25T19:38:33.819Z,101585.19
2022-08-25T19:41:00.692Z,101582.78
2022-08-25T19:43:27.511Z,101590.81
2022-08-25T19:45:54.129Z,101597.50
2022-08-25T19:48:20.833Z,101599.66
2022-08-25T19:50:48.029Z,101599.34
2022-08-25T19:53:22.421Z,101602.44
2022-08-25T19:55:49.197Z,101605.19
2022-08-25T19:58:16.080Z,101605.19
2022-08-25T20:00:47.153Z,101607.59
2022-08-25T20:03:17.527Z,101603.66
2022-08-25T20:05:44.093Z,101609.94
2022-08-25T20:08:10.609Z,101620.31
2022-08-25T20:10:41.864Z,101625.03
2022-08-25T20:13:08.920Z,101638.25
2022-08-25T20:15:37.269Z,101628.50
2022-08-25T20:18:06.124Z,101624.84
2022-08-25T20:20:34.614Z,101625.84
2022-08-25T20:23:21.002Z,101624.78
2022-08-25T20:25:50.225Z,101626.94
2022-08-25T20:28:18.952Z,101629.31
2022-08-25T20:30:45.988Z,101636.81
2022-08-25T20:33:13.259Z,101632.84
2022-08-25T20:35:47.969Z,101635.38
2022-08-25T20:38:14.590Z,101639.69
2022-08-25T20:40:41.942Z,101637.31
2022-08-25T20:43:10.528Z,101643.47
2022-08-25T20:45:39.578Z,101645.34
2022-08-25T20:48:06.284Z,101643.66
2022-08-25T20:50:33.718Z,101642.63
2022-08-25T20:53:00.861Z,101646.91
2022-08-25T20:55:27.875Z,101657.75
2022-08-25T20:57:56.164Z,101645.00
2022-08-25T21:00:24.886Z,101646.34
2022-08-25T21:02:52.691Z,101652.09
2022-08-25T21:05:19.647Z,101652.94
2022-08-25T21:07:46.453Z,101650.19
2022-08-25T21:10:15.976Z,101641.59
2022-08-25T21:12:43.147Z,101661.06
2022-08-25T21:15:10.593Z,101655.78
2022-08-25T21:17:37.479Z,101645.91
2022-08-25T21:20:08.606Z,101661.13
2022-08-25T21:22:36.958Z,101660.69
2022-08-25T21:25:04.750Z,101654.91
2022-08-25T21:27:31.311Z,101661.94
2022-08-25T21:29:57.999Z,101661.31
2022-08-25T21:32:24.689Z,101660.03
2022-08-25T21:34:53.053Z,101669.25
2022-08-25T21:37:20.224Z,101669.28
2022-08-25T21:39:46.817Z,101673.56
2022-08-25T21:42:13.492Z,101675.03
2022-08-25T21:44:40.547Z,101684.59
2022-08-25T21:47:07.102Z,101682.22
2022-08-25T21:49:37.299Z,101686.09
2022-08-25T21:52:04.618Z,101678.03
2022-08-25T21:54:31.639Z,101672.94
2022-08-25T21:57:00.927Z,101679.53
2022-08-25T21:59:29.878Z,101678.69
2022-08-25T22:02:00.357Z,101669.34
2022-08-25T22:04:27.963Z,101670.19
2022-08-25T22:06:54.871Z,101668.97
2022-08-25T22:09:24.909Z,101676.59
2022-08-25T22:11:54.625Z,101677.66
2022-08-25T22:14:21.999Z,101682.56
2022-08-25T22:16:48.601Z,101686.63
2022-08-25T22:19:15.471Z,101681.50
2022-08-25T22:21:43.312Z,101681.06
2022-08-25T22:24:10.749Z,101671.47
2022-08-25T22:26:38.223Z,101676.34
2022-08-25T22:29:05.301Z,101679.56
2022-08-25T22:31:33.874Z,101681.53
2022-08-25T22:34:01.031Z,101682.59
2022-08-25T22:36:35.121Z,101683.66
2022-08-25T22:39:03.079Z,101692.84
2022-08-25T22:41:31.475Z,101690.66
2022-08-25T22:44:00.012Z,101682.19
2022-08-25T22:46:32.333Z,101681.31
2022-08-25T22:49:00.051Z,101684.75
2022-08-25T22:51:31.460Z,101687.97
2022-08-25T22:54:02.012Z,101700.97
2022-08-25T22:56:34.941Z,101700.28
2022-08-25T22:59:08.787Z,101692.44
2022-08-25T23:01:36.259Z,101700.31
2022-08-25T23:04:04.951Z,101700.31
2022-08-25T23:06:31.712Z,101703.06
2022-08-25T23:08:58.752Z,101702.44
2022-08-25T23:11:25.700Z,101699.69
2022-08-25T23:13:56.837Z,101700.56
2022-08-25T23:16:24.104Z,101701.34
2022-08-25T23:18:51.486Z,101700.31
2022-08-25T23:21:37.952Z,101704.81
2022-08-25T23:24:10.791Z,101702.94
2022-08-25T23:26:42.535Z,101709.28
2022-08-25T23:29:18.603Z,101708.47
2022-08-25T23:31:46.893Z,101696.31
2022-08-25T23:34:15.399Z,101688.88
2022-08-25T23:36:43.269Z,101687.56
2022-08-25T23:39:11.049Z,101684.19
2022-08-25T23:41:37.603Z,101684.41
2022-08-25T23:44:05.520Z,101695.03
2022-08-25T23:46:35.086Z,101693.34
2022-08-25T23:49:02.592Z,101688.03
2022-08-25T23:51:37.301Z,101690.56
2022-08-25T23:54:07.067Z,101700.16
2022-08-25T23:56:36.487Z,101703.75
2022-08-25T23:59:04.115Z,101709.31
